createdAt,value
2022-08-18T00:01:45.763Z,22.40
2022-08-18T00:04:48.481Z,22.10
2022-08-18T00:07:31.066Z,21.90
2022-08-18T00:10:18.777Z,21.70
2022-08-18T00:13:06.681Z,21.80
2022-08-18T00:15:54.053Z,21.80
2022-08-18T00:18:41.195Z,21.80
2022-08-18T00:21:28.674Z,21.70
2022-08-18T00:24:16.199Z,21.50
2022-08-18T00:27:03.340Z,21.50
2022-08-18T00:29:51.336Z,21.50
2022-08-18T00:32:42.017Z,21.40
2022-08-18T00:35:32.726Z,21.30
2022-08-18T00:38:24.800Z,21.20
2022-08-18T00:41:09.244Z,21.20
2022-08-18T00:43:58.387Z,21.10
2022-08-18T00:46:45.844Z,21.10
2022-08-18T00:49:33.484Z,21.10
2022-08-18T00:52:22.846Z,21.00
2022-08-18T00:55:10.974Z,21.10
2022-08-18T00:58:01.773Z,21.10
2022-08-18T01:00:52.274Z,21.20
2022-08-18T01:03:42.061Z,21.30
2022-08-18T01:06:44.890Z,21.20
2022-08-18T01:09:32.420Z,21.20
2022-08-18T01:12:45.239Z,21.30
2022-08-18T01:15:28.443Z,21.40
2022-08-18T01:18:21.537Z,21.40
2022-08-18T01:21:32.840Z,21.50
2022-08-18T01:24:49.989Z,21.60
2022-08-18T01:27:37.680Z,21.60
2022-08-18T01:30:28.200Z,21.70
2022-08-18T01:33:16.913Z,21.70
2022-08-18T01:36:19.616Z,21.80
2022-08-18T01:39:09.572Z,21.70
2022-08-18T01:41:57.136Z,21.70
2022-08-18T01:44:47.695Z,21.60
2022-08-18T01:47:47.496Z,21.60
2022-08-18T01:50:25.168Z,21.40
2022-08-18T01:53:12.847Z,21.30
2022-08-18T01:56:00.475Z,21.20
2022-08-18T01:58:48.877Z,21.20
2022-08-18T02:01:38.948Z,21.20
2022-08-18T02:04:36.520Z,21.20
2022-08-18T02:07:20.273Z,21.20
2022-08-18T02:10:12.169Z,21.30
2022-08-18T02:12:59.831Z,21.30
2022-08-18T02:15:47.723Z,21.40
2022-08-18T02:18:47.464Z,21.40
2022-08-18T02:21:26.104Z,21.50
2022-08-18T02:24:13.350Z,21.60
2022-08-18T02:27:01.263Z,21.70
2022-08-18T02:29:48.647Z,21.80
2022-08-18T02:32:35.926Z,21.70
2022-08-18T02:35:23.489Z,21.70
2022-08-18T02:38:11.319Z,21.80
2022-08-18T02:41:02.782Z,21.80
2022-08-18T02:43:50.687Z,21.80
2022-08-18T02:46:38.714Z,21.90
2022-08-18T02:49:26.303Z,21.90
2022-08-18T02:52:13.843Z,22.00
2022-08-18T02:55:04.592Z,22.00
2022-08-18T02:57:53.046Z,22.00
2022-08-18T03:00:40.924Z,22.10
2022-08-18T03:03:28.718Z,22.20
2022-08-18T03:06:16.721Z,22.20
2022-08-18T03:09:06.232Z,22.20
2022-08-18T03:11:53.585Z,22.20
2022-08-18T03:14:41.015Z,22.20
2022-08-18T03:17:28.872Z,22.20
2022-08-18T03:20:16.541Z,22.20
2022-08-18T03:23:10.125Z,22.30
2022-08-18T03:25:55.321Z,22.20
2022-08-18T03:28:44.483Z,22.20
2022-08-18T03:31:32.417Z,22.20
2022-08-18T03:34:20.900Z,22.20
2022-08-18T03:37:08.853Z,22.20
2022-08-18T03:39:56.504Z,22.20
2022-08-18T03:42:44.122Z,22.20
2022-08-18T03:45:31.841Z,22.20
2022-08-18T03:48:19.202Z,22.20
2022-08-18T03:51:09.268Z,22.20
2022-08-18T03:54:01.281Z,22.10
2022-08-18T03:56:50.104Z,22.10
2022-08-18T03:59:40.065Z,22.10
2022-08-18T04:02:28.368Z,22.00
2022-08-18T04:05:15.876Z,21.90
2022-08-18T04:08:05.391Z,21.80
2022-08-18T04:10:52.637Z,21.70
2022-08-18T04:13:40.244Z,21.70
2022-08-18T04:16:29.577Z,21.70
2022-08-18T04:19:23.103Z,21.80
2022-08-18T04:22:07.406Z,21.80
2022-08-18T04:24:55.661Z,21.80
2022-08-18T04:27:44.608Z,21.70
2022-08-18T04:30:32.165Z,21.70
2022-08-18T04:33:19.695Z,21.70
2022-08-18T04:36:20.732Z,21.80
2022-08-18T04:39:07.026Z,21.90
2022-08-18T04:41:54.680Z,21.90
2022-08-18T04:44:42.917Z,21.90
2022-08-18T04:47:30.008Z,21.90
2022-08-18T04:50:17.667Z,21.90
2022-08-18T04:53:23.751Z,21.90
2022-08-18T04:56:12.813Z,22.00
2022-08-18T04:59:06.450Z,22.00
2022-08-18T05:01:54.044Z,22.10
2022-08-18T05:04:43.020Z,22.20
2022-08-18T05:07:30.575Z,22.00
2022-08-18T05:10:18.333Z,22.00
2022-08-18T05:13:06.430Z,22.00
2022-08-18T05:16:10.134Z,22.00
2022-08-18T05:18:46.273Z,22.00
2022-08-18T05:21:33.791Z,22.20
2022-08-18T05:24:24.782Z,22.20
2022-08-18T05:27:12.976Z,22.30
2022-08-18T05:30:00.855Z,22.40
2022-08-18T05:32:50.497Z,22.50
2022-08-18T05:35:52.216Z,22.60
2022-08-18T05:38:59.581Z,22.60
2022-08-18T05:41:55.449Z,22.70
2022-08-18T05:44:45.621Z,22.60
2022-08-18T05:47:33.893Z,22.60
2022-08-18T05:50:21.776Z,22.70
2022-08-18T05:53:14.600Z,22.70
2022-08-18T05:56:23.632Z,22.80
2022-08-18T05:59:14.342Z,22.80
2022-08-18T06:02:32.256Z,22.90
2022-08-18T06:05:25.708Z,22.90
2022-08-18T06:08:15.793Z,23.00
2022-08-18T06:11:03.074Z,23.10
2022-08-18T06:13:59.180Z,23.00
2022-08-18T06:17:02.077Z,23.00
2022-08-18T06:20:12.141Z,22.70
2022-08-18T06:23:18.803Z,22.60
2022-08-18T06:26:21.356Z,22.60
2022-08-18T06:29:11.532Z,22.70
2022-08-18T06:32:26.247Z,22.70
2022-08-18T06:35:19.636Z,22.80
2022-08-18T06:38:40.643Z,22.80
2022-08-18T06:41:43.459Z,22.90
2022-08-18T06:44:42.515Z,22.90
2022-08-18T06:47:51.242Z,23.00
2022-08-18T06:50:43.624Z,23.10
2022-08-18T06:54:02.687Z,23.20
2022-08-18T06:56:52.468Z,23.30
2022-08-18T06:59:39.621Z,23.40
2022-08-18T07:02:30.011Z,23.40
2022-08-18T07:05:22.156Z,23.40
2022-08-18T07:08:18.804Z,23.40
2022-08-18T07:11:23.726Z,23.40
2022-08-18T07:14:17.343Z,23.40
2022-08-18T07:17:13.733Z,23.50
2022-08-18T07:20:10.312Z,23.60
2022-08-18T07:23:08.062Z,23.50
2022-08-18T07:26:03.521Z,23.50
2022-08-18T07:28:53.330Z,23.40
2022-08-18T07:31:48.144Z,23.40
2022-08-18T07:34:38.368Z,23.30
2022-08-18T07:37:29.210Z,23.20
2022-08-18T07:40:31.475Z,23.30
2022-08-18T07:43:25.479Z,23.30
2022-08-18T07:46:16.297Z,23.30
2022-08-18T07:49:06.368Z,23.40
2022-08-18T07:52:36.194Z,23.40
2022-08-18T07:55:10.131Z,23.40
2022-08-18T07:58:15.073Z,23.40
2022-08-18T08:01:08.395Z,23.40
2022-08-18T08:04:25.655Z,23.50
2022-08-18T08:07:28.731Z,23.60
2022-08-18T08:10:36.199Z,23.60
2022-08-18T08:13:58.355Z,23.60
2022-08-18T08:16:40.886Z,23.70
2022-08-18T08:19:59.391Z,23.80
2022-08-18T08:22:40.979Z,23.90
2022-08-18T08:25:47.710Z,23.90
2022-08-18T08:28:29.313Z,24.00
2022-08-18T08:31:39.757Z,24.10
2022-08-18T08:34:22.105Z,24.10
2022-08-18T08:37:12.777Z,24.00
2022-08-18T08:40:03.182Z,24.10
2022-08-18T08:43:02.708Z,24.20
2022-08-18T08:46:02.466Z,24.10
2022-08-18T08:48:58.914Z,24.20
2022-08-18T08:51:49.628Z,24.30
2022-08-18T08:54:40.151Z,24.30
2022-08-18T08:57:36.224Z,24.40
2022-08-18T09:00:24.020Z,24.50
2022-08-18T09:03:32.242Z,24.40
2022-08-18T09:06:27.950Z,24.40
2022-08-18T09:09:24.429Z,24.60
2022-08-18T09:12:37.387Z,24.60
2022-08-18T09:15:30.112Z,24.50
2022-08-18T09:18:35.854Z,24.60
2022-08-18T09:21:32.413Z,24.60
2022-08-18T09:24:25.683Z,24.70
2022-08-18T09:27:16.229Z,24.80
2022-08-18T09:30:07.200Z,24.90
2022-08-18T09:33:19.611Z,24.90
2022-08-18T09:36:13.000Z,24.90
2022-08-18T09:39:29.031Z,24.70
2022-08-18T09:42:31.479Z,24.70
2022-08-18T09:45:34.511Z,24.70
2022-08-18T09:48:30.854Z,24.70
2022-08-18T09:51:20.670Z,24.80
2022-08-18T09:54:13.268Z,24.90
2022-08-18T09:57:07.175Z,24.90
2022-08-18T09:59:57.605Z,25.00
2022-08-18T10:02:51.317Z,25.10
2022-08-18T10:05:40.738Z,25.20
2022-08-18T10:08:44.333Z,25.40
2022-08-18T10:11:41.339Z,25.30
2022-08-18T10:14:37.720Z,25.10
2022-08-18T10:17:50.058Z,25.00
2022-08-18T10:20:46.034Z,24.80
2022-08-18T10:24:14.631Z,24.90
2022-08-18T10:26:54.240Z,24.90
2022-08-18T10:30:03.899Z,24.90
2022-08-18T10:32:52.201Z,24.90
2022-08-18T10:35:43.056Z,25.20
2022-08-18T10:38:45.876Z,25.20
2022-08-18T10:41:32.639Z,25.20
2022-08-18T10:47:24.913Z,25.10
2022-08-18T10:50:20.773Z,25.20
2022-08-18T10:53:39.777Z,25.00
2022-08-18T10:56:43.826Z,25.00
2022-08-18T10:59:47.723Z,25.00
2022-08-18T11:03:21.228Z,25.00
2022-08-18T11:05:43.913Z,24.90
2022-08-18T11:08:36.895Z,25.00
2022-08-18T11:11:39.167Z,25.00
2022-08-18T11:14:50.052Z,24.90
2022-08-18T11:17:49.900Z,25.00
2022-08-18T11:20:38.820Z,25.10
2022-08-18T11:23:27.501Z,25.30
2022-08-18T11:26:19.452Z,25.30
2022-08-18T11:29:32.551Z,25.40
2022-08-18T11:32:32.443Z,25.40
2022-08-18T11:35:25.936Z,25.50
2022-08-18T11:38:20.729Z,25.30
2022-08-18T11:41:24.382Z,25.30
2022-08-18T11:44:14.842Z,25.40
2022-08-18T11:47:16.941Z,25.60
2022-08-18T11:50:13.941Z,25.70
2022-08-18T11:53:19.349Z,26.00
2022-08-18T11:56:20.135Z,26.30
2022-08-18T11:59:11.785Z,26.70
2022-08-18T12:01:59.597Z,27.30
2022-08-18T12:07:57.243Z,28.10
2022-08-18T12:10:32.513Z,28.40
2022-08-18T12:13:26.844Z,29.20
2022-08-18T12:16:17.409Z,29.80
2022-08-18T12:19:07.670Z,30.00
2022-08-18T12:21:59.073Z,30.30
2022-08-18T12:24:48.261Z,30.80
2022-08-18T12:27:35.854Z,30.80
2022-08-18T12:30:23.649Z,31.10
2022-08-18T12:33:12.483Z,30.80
2022-08-18T12:36:00.451Z,30.60
2022-08-18T12:38:52.234Z,30.20
2022-08-18T12:41:36.679Z,30.10
2022-08-18T12:44:27.330Z,30.00
2022-08-18T12:47:15.881Z,29.70
2022-08-18T12:50:03.436Z,29.60
2022-08-18T12:52:51.660Z,29.70
2022-08-18T12:55:44.092Z,30.00
2022-08-18T12:58:31.208Z,30.20
2022-08-18T13:01:23.198Z,30.30
2022-08-18T13:04:13.167Z,30.10
2022-08-18T13:07:05.914Z,30.30
2022-08-18T13:09:54.399Z,30.60
2022-08-18T13:12:41.828Z,31.00
2022-08-18T13:15:30.229Z,31.30
2022-08-18T13:18:17.746Z,31.40
2022-08-18T13:21:07.346Z,31.70
2022-08-18T13:23:55.115Z,31.70
2022-08-18T13:26:45.754Z,31.60
2022-08-18T13:29:33.469Z,31.80
2022-08-18T13:32:21.179Z,31.70
2022-08-18T13:35:13.210Z,31.60
2022-08-18T13:37:59.115Z,31.20
2022-08-18T13:40:48.458Z,31.00
2022-08-18T13:43:39.168Z,30.70
2022-08-18T13:46:31.053Z,31.20
2022-08-18T13:49:15.953Z,31.70
2022-08-18T13:52:12.180Z,32.00
2022-08-18T13:54:55.346Z,32.30
2022-08-18T13:57:53.437Z,32.50
2022-08-18T14:00:37.884Z,32.50
2022-08-18T14:03:42.304Z,32.00
2022-08-18T14:06:13.900Z,31.50
2022-08-18T14:09:01.627Z,30.90
2022-08-18T14:11:51.165Z,30.80
2022-08-18T14:14:38.589Z,31.10
2022-08-18T14:17:26.652Z,31.10
2022-08-18T14:20:32.246Z,30.90
2022-08-18T14:23:39.311Z,30.90
2022-08-18T14:26:45.365Z,30.70
2022-08-18T14:29:46.667Z,30.90
2022-08-18T14:32:29.046Z,30.90
2022-08-18T14:36:04.363Z,30.70
2022-08-18T14:38:06.890Z,30.30
2022-08-18T14:40:57.040Z,30.30
2022-08-18T14:44:04.539Z,30.10
2022-08-18T14:46:34.726Z,30.00
2022-08-18T14:49:28.316Z,30.00
2022-08-18T14:52:13.959Z,29.90
2022-08-18T14:55:01.660Z,30.00
2022-08-18T14:57:50.335Z,29.90
2022-08-18T15:00:53.732Z,29.90
2022-08-18T15:03:31.436Z,30.40
2022-08-18T15:06:22.937Z,30.60
2022-08-18T15:09:07.999Z,30.90
2022-08-18T15:11:58.383Z,30.90
2022-08-18T15:14:47.611Z,31.10
2022-08-18T15:17:38.161Z,31.10
2022-08-18T15:20:29.509Z,31.10
2022-08-18T15:23:34.773Z,31.10
2022-08-18T15:26:25.843Z,30.90
2022-08-18T15:29:15.040Z,31.20
2022-08-18T15:32:06.154Z,31.10
2022-08-18T15:34:51.938Z,31.20
2022-08-18T15:37:39.484Z,31.10
2022-08-18T15:40:35.603Z,30.90
2022-08-18T15:43:19.389Z,30.80
2022-08-18T15:46:07.578Z,30.60
2022-08-18T15:48:56.537Z,30.30
2022-08-18T15:51:46.344Z,30.40
2022-08-18T15:54:33.874Z,30.60
2022-08-18T15:57:38.788Z,30.40
2022-08-18T16:00:12.374Z,30.20
2022-08-18T16:03:08.972Z,30.00
2022-08-18T16:05:56.491Z,29.90
2022-08-18T16:08:44.291Z,29.70
2022-08-18T16:11:31.846Z,29.80
2022-08-18T16:14:19.432Z,29.60
2022-08-18T16:17:09.490Z,29.50
2022-08-18T16:19:56.158Z,29.20
2022-08-18T16:22:43.627Z,29.20
2022-08-18T16:25:31.304Z,29.30
2022-08-18T16:28:18.973Z,29.30
2022-08-18T16:31:07.576Z,29.40
2022-08-18T16:33:57.208Z,29.40
2022-08-18T16:36:44.424Z,29.30
2022-08-18T16:39:33.568Z,29.20
2022-08-18T16:42:21.346Z,29.20
2022-08-18T16:45:09.636Z,29.10
2022-08-18T16:47:58.479Z,28.90
2022-08-18T16:50:46.268Z,28.80
2022-08-18T16:53:39.766Z,28.70
2022-08-18T16:56:25.926Z,28.60
2022-08-18T17:02:35.182Z,28.60
2022-08-18T17:05:22.471Z,28.60
2022-08-18T17:08:10.134Z,28.20
2022-08-18T17:10:57.853Z,28.00
2022-08-18T17:13:46.791Z,27.80
2022-08-18T17:16:35.503Z,27.60
2022-08-18T17:19:33.155Z,27.50
2022-08-18T17:22:20.334Z,27.50
2022-08-18T17:25:10.943Z,27.50
2022-08-18T17:28:00.967Z,27.60
2022-08-18T17:30:51.788Z,27.60
2022-08-18T17:33:44.167Z,27.50
2022-08-18T17:36:41.122Z,27.30
2022-08-18T17:39:35.828Z,27.20
2022-08-18T17:42:26.093Z,27.00
2022-08-18T17:45:21.669Z,27.00
2022-08-18T17:48:10.566Z,26.90
2022-08-18T17:51:22.277Z,26.80
2022-08-18T17:54:35.493Z,26.90
2022-08-18T17:57:34.064Z,27.00
2022-08-18T18:00:21.744Z,26.90
2022-08-18T18:03:13.069Z,26.90
2022-08-18T18:06:01.821Z,26.80
2022-08-18T18:08:58.168Z,26.70
2022-08-18T18:11:48.923Z,26.70
2022-08-18T18:14:40.325Z,26.70
2022-08-18T18:17:34.795Z,26.70
2022-08-18T18:20:39.218Z,26.60
2022-08-18T18:23:32.264Z,26.70
2022-08-18T18:26:28.801Z,26.80
2022-08-18T18:29:22.006Z,26.70
2022-08-18T18:32:20.934Z,26.50
2022-08-18T18:35:16.965Z,26.10
2022-08-18T18:38:07.558Z,25.30
2022-08-18T18:41:03.675Z,24.40
2022-08-18T18:43:52.303Z,23.70
2022-08-18T18:46:45.538Z,23.30
2022-08-18T18:49:35.809Z,23.00
2022-08-18T18:52:41.345Z,22.80
2022-08-18T18:55:32.196Z,22.80
2022-08-18T18:58:27.434Z,22.70
2022-08-18T19:01:20.918Z,22.50
2022-08-18T19:04:23.357Z,22.30
2022-08-18T19:07:29.314Z,22.20
2022-08-18T19:10:37.448Z,21.90
2022-08-18T19:13:32.957Z,21.80
2022-08-18T19:16:25.623Z,21.80
2022-08-18T19:19:37.082Z,21.80
2022-08-18T19:22:41.564Z,21.90
2022-08-18T19:25:32.025Z,21.90
2022-08-18T19:28:22.415Z,21.90
2022-08-18T19:31:18.704Z,21.90
2022-08-18T19:34:10.492Z,22.00
2022-08-18T19:37:30.976Z,21.90
2022-08-18T19:40:21.813Z,22.10
2022-08-18T19:43:26.299Z,22.10
2022-08-18T19:46:29.272Z,22.20
2022-08-18T19:49:22.464Z,22.20
2022-08-18T19:52:47.239Z,22.30
2022-08-18T19:55:40.907Z,22.30
2022-08-18T19:58:34.143Z,22.50
2022-08-18T20:01:36.798Z,22.50
2022-08-18T20:04:53.898Z,22.60
2022-08-18T20:07:56.232Z,22.60
2022-08-18T20:11:08.157Z,22.50
2022-08-18T20:13:57.037Z,22.50
2022-08-18T20:16:59.800Z,22.50
2022-08-18T20:20:04.381Z,22.40
2022-08-18T20:22:57.017Z,22.40
2022-08-18T20:25:46.296Z,22.40
2022-08-18T20:28:36.684Z,22.40
2022-08-18T20:31:24.304Z,22.40
2022-08-18T20:34:14.736Z,22.50
2022-08-18T20:37:06.046Z,22.50
2022-08-18T20:39:55.816Z,22.60
2022-08-18T20:42:45.363Z,22.60
2022-08-18T20:45:36.138Z,22.60
2022-08-18T20:48:33.758Z,22.70
2022-08-18T20:51:26.603Z,22.70
2022-08-18T20:54:29.658Z,22.60
2022-08-18T20:57:19.892Z,22.50
2022-08-18T21:00:22.687Z,22.40
2022-08-18T21:03:11.683Z,22.40
2022-08-18T21:06:01.415Z,22.50
2022-08-18T21:08:51.952Z,22.60
2022-08-18T21:11:45.358Z,22.60
2022-08-18T21:14:32.828Z,22.70
2022-08-18T21:17:21.212Z,22.60
2022-08-18T21:20:11.727Z,22.70
2022-08-18T21:23:05.630Z,22.60
2022-08-18T21:25:59.689Z,22.60
2022-08-18T21:28:50.664Z,22.60
2022-08-18T21:31:45.143Z,22.50
2022-08-18T21:34:42.996Z,22.60
2022-08-18T21:37:29.286Z,22.60
2022-08-18T21:40:18.515Z,22.60
2022-08-18T21:43:07.313Z,22.60
2022-08-18T21:45:56.366Z,22.50
2022-08-18T21:48:49.913Z,22.60
2022-08-18T21:51:46.612Z,22.40
2022-08-18T21:54:35.593Z,22.40
2022-08-18T21:57:27.326Z,22.30
2022-08-18T22:00:21.986Z,22.20
2022-08-18T22:03:28.754Z,22.10
2022-08-18T22:06:25.074Z,22.10
2022-08-18T22:09:33.822Z,22.00
2022-08-18T22:12:48.374Z,22.00
2022-08-18T22:15:45.057Z,22.00
2022-08-18T22:18:38.369Z,22.00
2022-08-18T22:21:37.999Z,22.00
2022-08-18T22:24:37.666Z,22.00
2022-08-18T22:27:27.168Z,21.90
2022-08-18T22:30:14.484Z,21.80
2022-08-18T22:33:01.497Z,21.80
2022-08-18T22:35:54.312Z,21.80
2022-08-18T22:38:41.555Z,21.90
2022-08-18T22:41:29.049Z,21.90
2022-08-18T22:44:17.611Z,22.00
2022-08-18T22:47:06.951Z,22.00
2022-08-18T22:49:54.499Z,22.00
2022-08-18T22:52:46.329Z,22.00
2022-08-18T22:55:33.926Z,22.10
2022-08-18T22:58:24.096Z,22.00
2022-08-18T23:01:11.198Z,22.00
2022-08-18T23:03:58.519Z,22.10
2022-08-18T23:06:50.583Z,22.20
2022-08-18T23:09:40.108Z,22.10
2022-08-18T23:12:28.027Z,21.90
2022-08-18T23:15:18.163Z,21.90
2022-08-18T23:18:06.357Z,21.90
2022-08-18T23:20:59.397Z,21.90
2022-08-18T23:23:47.065Z,21.90
2022-08-18T23:26:36.137Z,21.80
2022-08-18T23:29:23.862Z,21.80
2022-08-18T23:32:11.128Z,21.90
2022-08-18T23:34:58.441Z,22.00
2022-08-18T23:37:46.642Z,22.10
2022-08-18T23:40:34.308Z,22.20
2022-08-18T23:43:23.165Z,22.20
2022-08-18T23:46:21.336Z,22.20
2022-08-18T23:49:10.953Z,22.30
2022-08-18T23:51:59.989Z,22.20
2022-08-18T23:54:47.042Z,22.30
2022-08-18T23:57:36.108Z,22.30
